Time;durP1;ratioP1;P1;durP2;ratioP2;P2;SDS_P1;SDS_P2;PMS_P1;PMS_P2;Temp;Humidity;BMP_temperature;BMP_pressure;BME280_temperature;BME280_humidity;BME280_pressure;Samples;Min_cycle;Max_cycle;Signal;HPM_P1;HPM_P2
2022/10/20 00:01:09;;;;;;;2.10;2.00;;;;;;;;;;5121189;28;20481;-68
2022/10/20 00:03:37;;;;;;;1.90;1.80;;;;;;;;;;5120333;28;20530;-66
2022/10/20 00:06:09;;;;;;;1.70;1.60;;;;;;;;;;5120462;28;20306;-66
2022/10/20 00:08:37;;;;;;;2.05;1.95;;;;;;;;;;5120282;28;20613;-66
2022/10/20 00:11:04;;;;;;;1.98;1.88;;;;;;;;;;5120458;28;20203;-66
2022/10/20 00:13:34;;;;;;;1.88;1.77;;;;;;;;;;5120077;28;20609;-68
2022/10/20 00:16:02;;;;;;;1.70;1.60;;;;;;;;;;5120717;28;20206;-66
2022/10/20 00:18:30;;;;;;;2.00;1.90;;;;;;;;;;5120395;28;20207;-68
2022/10/20 00:20:57;;;;;;;1.90;1.80;;;;;;;;;;5127586;27;20610;-67
2022/10/20 00:23:26;;;;;;;1.85;1.75;;;;;;;;;;5121969;27;20259;-68
2022/10/20 00:26:01;;;;;;;1.80;1.70;;;;;;;;;;5119868;28;20203;-68
2022/10/20 00:28:29;;;;;;;1.85;1.75;;;;;;;;;;5119013;27;20269;-68
2022/10/20 00:30:59;;;;;;;2.03;1.92;;;;;;;;;;5120624;28;20221;-67
2022/10/20 00:33:27;;;;;;;2.08;1.88;;;;;;;;;;5119391;28;20199;-66
2022/10/20 00:35:54;;;;;;;2.55;2.35;;;;;;;;;;5119623;28;20207;-65
2022/10/20 00:38:22;;;;;;;2.78;1.80;;;;;;;;;;5120173;28;20238;-66
2022/10/20 00:40:50;;;;;;;2.00;1.90;;;;;;;;;;5118916;28;20203;-65
2022/10/20 00:43:18;;;;;;;1.75;1.65;;;;;;;;;;5119784;28;20211;-66
2022/10/20 00:45:47;;;;;;;2.10;1.67;;;;;;;;;;5119537;28;20199;-66
2022/10/20 00:48:19;;;;;;;2.08;1.90;;;;;;;;;;5119815;28;20247;-66
2022/10/20 00:50:50;;;;;;;2.20;1.98;;;;;;;;;;5119924;28;20446;-65
2022/10/20 00:53:18;;;;;;;1.95;1.85;;;;;;;;;;5120135;28;20602;-64
2022/10/20 00:55:47;;;;;;;1.70;1.60;;;;;;;;;;5120010;28;20298;-65
2022/10/20 00:58:16;;;;;;;2.08;1.98;;;;;;;;;;5119913;28;20199;-65
2022/10/20 01:00:44;;;;;;;2.85;1.98;;;;;;;;;;5119705;28;20301;-65
2022/10/20 01:03:16;;;;;;;2.00;1.80;;;;;;;;;;5120066;28;20542;-66
2022/10/20 01:05:46;;;;;;;2.03;1.90;;;;;;;;;;5119806;28;20290;-66
2022/10/20 01:08:14;;;;;;;1.90;1.80;;;;;;;;;;5119918;28;20239;-65
2022/10/20 01:10:48;;;;;;;2.08;1.98;;;;;;;;;;5119518;28;20207;-66
2022/10/20 01:13:20;;;;;;;1.90;1.77;;;;;;;;;;5119554;28;20270;-67
2022/10/20 01:15:53;;;;;;;1.90;1.80;;;;;;;;;;5118334;28;20201;-65
2022/10/20 01:18:23;;;;;;;1.77;1.67;;;;;;;;;;5119259;28;20222;-68
2022/10/20 01:21:03;;;;;;;1.95;1.85;;;;;;;;;;5119612;28;20199;-67
2022/10/20 01:23:52;;;;;;;1.80;1.70;;;;;;;;;;5119481;28;20501;-65
2022/10/20 01:26:38;;;;;;;2.25;1.80;;;;;;;;;;5118620;28;20293;-68
2022/10/20 01:29:10;;;;;;;2.97;1.80;;;;;;;;;;5113126;28;20237;-67
2022/10/20 01:31:41;;;;;;;2.47;1.90;;;;;;;;;;5119086;28;20203;-67
2022/10/20 01:34:12;;;;;;;2.10;1.90;;;;;;;;;;5118422;28;20199;-68
2022/10/20 01:36:41;;;;;;;2.03;1.92;;;;;;;;;;5118271;28;20202;-67
2022/10/20 01:39:10;;;;;;;1.90;1.75;;;;;;;;;;5118600;28;20238;-67
2022/10/20 01:41:41;;;;;;;2.88;2.00;;;;;;;;;;5118452;28;20289;-67
2022/10/20 01:44:12;;;;;;;3.60;2.10;;;;;;;;;;5118589;28;20211;-67
2022/10/20 01:46:40;;;;;;;1.90;1.80;;;;;;;;;;5118828;28;20203;-67
2022/10/20 01:49:09;;;;;;;1.80;1.70;;;;;;;;;;5118464;28;20234;-67
2022/10/20 01:51:37;;;;;;;1.90;1.80;;;;;;;;;;5118336;28;20206;-67
2022/10/20 01:54:05;;;;;;;1.80;1.70;;;;;;;;;;5117988;28;20213;-67
2022/10/20 01:56:36;;;;;;;1.80;1.70;;;;;;;;;;5118798;28;20199;-66
2022/10/20 01:59:20;;;;;;;1.80;1.67;;;;;;;;;;5118428;28;20199;-66
2022/10/20 02:01:53;;;;;;;1.80;1.70;;;;;;;;;;5118839;28;20203;-67
2022/10/20 02:04:26;;;;;;;1.95;1.85;;;;;;;;;;5118912;28;20267;-67
2022/10/20 02:06:58;;;;;;;2.10;1.90;;;;;;;;;;5118502;28;20309;-67
2022/10/20 02:09:31;;;;;;;1.88;1.77;;;;;;;;;;5118536;28;20238;-68
2022/10/20 02:12:01;;;;;;;2.33;1.90;;;;;;;;;;5098448;28;20266;-66
2022/10/20 02:14:32;;;;;;;1.92;1.83;;;;;;;;;;5098436;28;20203;-68
2022/10/20 02:17:01;;;;;;;1.90;1.80;;;;;;;;;;5108346;28;20278;-67
2022/10/20 02:19:32;;;;;;;1.80;1.70;;;;;;;;;;5118457;28;20551;-67
2022/10/20 02:22:00;;;;;;;2.10;1.95;;;;;;;;;;5118256;28;20211;-67
2022/10/20 02:24:31;;;;;;;2.00;1.90;;;;;;;;;;5131429;28;20252;-67
2022/10/20 02:27:01;;;;;;;2.15;2.00;;;;;;;;;;5142451;27;20265;-67
2022/10/20 02:29:31;;;;;;;1.92;1.83;;;;;;;;;;5159424;27;20221;-67
2022/10/20 02:32:00;;;;;;;1.70;1.60;;;;;;;;;;5159823;27;20201;-67
2022/10/20 02:34:28;;;;;;;1.90;1.80;;;;;;;;;;5159574;27;20284;-67
2022/10/20 02:36:57;;;;;;;2.10;2.00;;;;;;;;;;5159748;27;20266;-67
2022/10/20 02:39:25;;;;;;;1.90;1.80;;;;;;;;;;5138631;27;20206;-67
2022/10/20 02:41:53;;;;;;;1.55;1.45;;;;;;;;;;5137915;28;20205;-68
2022/10/20 02:44:22;;;;;;;2.00;1.80;;;;;;;;;;5139047;28;20301;-66
2022/10/20 02:46:49;;;;;;;1.63;1.52;;;;;;;;;;5138656;28;20202;-67
2022/10/20 02:49:20;;;;;;;1.65;1.55;;;;;;;;;;5138500;28;20316;-67
2022/10/20 02:51:48;;;;;;;1.70;1.60;;;;;;;;;;5138013;28;20293;-66
2022/10/20 02:54:16;;;;;;;1.83;1.73;;;;;;;;;;5138878;28;20606;-66
2022/10/20 02:56:43;;;;;;;2.00;1.90;;;;;;;;;;5138697;28;20212;-67
2022/10/20 02:59:13;;;;;;;1.60;1.50;;;;;;;;;;5138563;28;20586;-67
2022/10/20 03:01:41;;;;;;;1.60;1.50;;;;;;;;;;5138639;28;20587;-66
2022/10/20 03:04:08;;;;;;;1.70;1.60;;;;;;;;;;5139234;27;20292;-66
2022/10/20 03:06:37;;;;;;;1.70;1.60;;;;;;;;;;5142749;27;20263;-66
2022/10/20 03:09:05;;;;;;;1.70;1.60;;;;;;;;;;5141714;27;20229;-67
2022/10/20 03:11:34;;;;;;;1.67;1.52;;;;;;;;;;5142303;27;20202;-66
2022/10/20 03:14:01;;;;;;;1.63;1.52;;;;;;;;;;5142553;27;20203;-67
2022/10/20 03:16:29;;;;;;;1.65;1.55;;;;;;;;;;5141734;27;20225;-66
2022/10/20 03:18:57;;;;;;;1.75;1.50;;;;;;;;;;5142125;27;20195;-66
2022/10/20 03:21:25;;;;;;;1.70;1.60;;;;;;;;;;5141943;27;20202;-66
2022/10/20 03:23:55;;;;;;;1.45;1.35;;;;;;;;;;5142336;27;20276;-66
2022/10/20 03:26:23;;;;;;;1.65;1.55;;;;;;;;;;5142109;27;20203;-67
2022/10/20 03:28:51;;;;;;;1.60;1.50;;;;;;;;;;5141778;27;20230;-71
2022/10/20 03:31:18;;;;;;;1.52;1.42;;;;;;;;;;5142206;27;20202;-67
2022/10/20 03:33:46;;;;;;;1.80;1.70;;;;;;;;;;5141709;27;20248;-66
2022/10/20 03:36:14;;;;;;;1.42;1.33;;;;;;;;;;5141099;27;20209;-66
2022/10/20 03:38:42;;;;;;;1.42;1.33;;;;;;;;;;5141938;27;20206;-66
2022/10/20 03:41:13;;;;;;;1.40;1.30;;;;;;;;;;5141451;27;20202;-66
2022/10/20 03:43:41;;;;;;;1.50;1.40;;;;;;;;;;5141430;27;20206;-66
2022/10/20 03:46:11;;;;;;;1.70;1.60;;;;;;;;;;5141906;27;20229;-67
2022/10/20 03:48:39;;;;;;;1.40;1.30;;;;;;;;;;5141287;27;20653;-67
2022/10/20 03:51:07;;;;;;;2.00;1.55;;;;;;;;;;5141759;27;20224;-65
2022/10/20 03:53:36;;;;;;;1.35;1.30;;;;;;;;;;5140683;27;20212;-66
2022/10/20 03:56:06;;;;;;;1.40;1.30;;;;;;;;;;5141254;27;20213;-67
2022/10/20 03:58:35;;;;;;;1.40;1.30;;;;;;;;;;5141291;27;20213;-66
2022/10/20 04:01:05;;;;;;;1.50;1.40;;;;;;;;;;5141095;27;20202;-67
2022/10/20 04:03:32;;;;;;;1.55;1.35;;;;;;;;;;5140012;27;20645;-67
2022/10/20 04:06:00;;;;;;;1.40;1.30;;;;;;;;;;5141497;27;20494;-66
2022/10/20 04:08:27;;;;;;;1.27;1.23;;;;;;;;;;5140854;27;20248;-66
2022/10/20 04:10:55;;;;;;;1.60;1.50;;;;;;;;;;5140849;27;20649;-67
2022/10/20 04:13:22;;;;;;;1.38;1.30;;;;;;;;;;5141346;27;20210;-66
2022/10/20 04:15:51;;;;;;;1.40;1.08;;;;;;;;;;5140804;27;20300;-66
2022/10/20 04:18:19;;;;;;;1.35;1.25;;;;;;;;;;5140764;27;20202;-66
2022/10/20 04:20:48;;;;;;;1.48;1.38;;;;;;;;;;5140916;27;20314;-66
2022/10/20 04:23:15;;;;;;;1.60;1.50;;;;;;;;;;5140670;27;20202;-67
2022/10/20 04:25:46;;;;;;;1.48;1.38;;;;;;;;;;5140602;27;20263;-65
2022/10/20 04:28:13;;;;;;;1.45;1.30;;;;;;;;;;5140349;27;20325;-66
2022/10/20 04:30:41;;;;;;;1.30;1.20;;;;;;;;;;5139884;27;20305;-66
2022/10/20 04:33:10;;;;;;;1.40;1.30;;;;;;;;;;5140144;27;20238;-66
2022/10/20 04:35:38;;;;;;;1.48;1.38;;;;;;;;;;5138588;27;20609;-66
2022/10/20 04:38:05;;;;;;;1.23;1.10;;;;;;;;;;5139249;27;20198;-67
2022/10/20 04:40:33;;;;;;;1.25;1.15;;;;;;;;;;5139671;27;20199;-67
2022/10/20 04:43:00;;;;;;;1.30;1.30;;;;;;;;;;5139734;27;20238;-67
2022/10/20 04:45:28;;;;;;;1.40;1.30;;;;;;;;;;5139770;27;20554;-66
2022/10/20 04:47:56;;;;;;;1.20;1.20;;;;;;;;;;5139452;27;20300;-67
2022/10/20 04:50:25;;;;;;;1.30;1.20;;;;;;;;;;5139929;27;20288;-68
2022/10/20 04:52:52;;;;;;;1.27;1.20;;;;;;;;;;5139517;27;20206;-69
2022/10/20 04:55:20;;;;;;;1.17;1.17;;;;;;;;;;5139241;27;20199;-67
2022/10/20 04:57:47;;;;;;;1.40;1.30;;;;;;;;;;5138306;27;20226;-67
2022/10/20 05:00:15;;;;;;;1.40;1.30;;;;;;;;;;5139927;27;20288;-66
2022/10/20 05:02:43;;;;;;;1.10;1.00;;;;;;;;;;5139122;27;20202;-66
2022/10/20 05:05:10;;;;;;;1.27;1.25;;;;;;;;;;5138703;27;20202;-66
2022/10/20 05:07:39;;;;;;;1.30;1.20;;;;;;;;;;5139245;27;20267;-67
2022/10/20 05:10:07;;;;;;;1.65;1.23;;;;;;;;;;5139065;27;20320;-66
2022/10/20 05:12:35;;;;;;;1.23;1.23;;;;;;;;;;5152932;27;20485;-66
2022/10/20 05:15:02;;;;;;;1.10;1.10;;;;;;;;;;5159641;27;20522;-66
2022/10/20 05:17:30;;;;;;;1.20;1.13;;;;;;;;;;5159226;27;20806;-66
2022/10/20 05:19:57;;;;;;;1.10;1.10;;;;;;;;;;5159748;27;20641;-66
2022/10/20 05:22:25;;;;;;;1.30;1.20;;;;;;;;;;5143919;27;20194;-67
2022/10/20 05:24:54;;;;;;;1.23;1.13;;;;;;;;;;5137474;27;20647;-66
2022/10/20 05:27:21;;;;;;;1.35;1.25;;;;;;;;;;5136935;27;20234;-67
2022/10/20 05:29:49;;;;;;;1.10;1.10;;;;;;;;;;5138011;27;20333;-66
2022/10/20 05:32:16;;;;;;;1.02;1.02;;;;;;;;;;5138825;27;20202;-66
2022/10/20 05:34:44;;;;;;;1.20;1.20;;;;;;;;;;5138343;27;20575;-66
2022/10/20 05:37:11;;;;;;;1.10;1.10;;;;;;;;;;5138229;27;20300;-66
2022/10/20 05:39:39;;;;;;;1.25;1.20;;;;;;;;;;5138090;27;20194;-67
2022/10/20 05:42:08;;;;;;;1.30;1.20;;;;;;;;;;5137938;27;20621;-66
2022/10/20 05:44:35;;;;;;;1.63;1.25;;;;;;;;;;5137685;27;20281;-67
2022/10/20 05:47:04;;;;;;;1.10;1.10;;;;;;;;;;5136722;27;20202;-66
2022/10/20 05:49:32;;;;;;;1.20;1.10;;;;;;;;;;5137547;27;20244;-67
2022/10/20 05:51:59;;;;;;;1.40;1.20;;;;;;;;;;5136311;27;20262;-67
2022/10/20 05:54:27;;;;;;;1.10;1.10;;;;;;;;;;5135725;27;20833;-67
2022/10/20 05:56:54;;;;;;;1.10;1.00;;;;;;;;;;5137269;27;20259;-67
2022/10/20 05:59:23;;;;;;;1.10;1.10;;;;;;;;;;5137447;27;20198;-67
2022/10/20 06:01:51;;;;;;;1.20;1.10;;;;;;;;;;5136519;27;20581;-66
2022/10/20 06:04:22;;;;;;;1.10;1.10;;;;;;;;;;5138236;27;20204;-66
2022/10/20 06:06:49;;;;;;;1.20;1.10;;;;;;;;;;5137607;27;20589;-67
2022/10/20 06:09:17;;;;;;;1.48;1.30;;;;;;;;;;5137385;27;20206;-66
2022/10/20 06:11:45;;;;;;;1.50;1.40;;;;;;;;;;5137156;27;20536;-66
2022/10/20 06:14:12;;;;;;;1.75;1.48;;;;;;;;;;5137457;27;20650;-65
2022/10/20 06:16:41;;;;;;;2.17;1.40;;;;;;;;;;5137088;27;20577;-65
2022/10/20 06:19:09;;;;;;;3.30;1.73;;;;;;;;;;5135830;27;20702;-66
2022/10/20 06:21:38;;;;;;;2.85;1.70;;;;;;;;;;5136345;27;20292;-65
2022/10/20 06:24:06;;;;;;;1.98;1.73;;;;;;;;;;5137732;28;20199;-65
2022/10/20 06:26:35;;;;;;;3.58;1.77;;;;;;;;;;5136792;28;20597;-66
2022/10/20 06:29:04;;;;;;;3.05;1.95;;;;;;;;;;5137238;28;20206;-69
2022/10/20 06:31:32;;;;;;;2.72;1.90;;;;;;;;;;5140778;28;20209;-65
2022/10/20 06:34:01;;;;;;;2.60;1.90;;;;;;;;;;5136730;28;20247;-67
2022/10/20 06:36:29;;;;;;;2.65;1.55;;;;;;;;;;5137179;28;20210;-65
2022/10/20 06:38:58;;;;;;;2.20;2.00;;;;;;;;;;5138238;27;20202;-65
2022/10/20 06:41:27;;;;;;;2.25;2.00;;;;;;;;;;5140797;27;20351;-65
2022/10/20 06:43:58;;;;;;;3.42;1.85;;;;;;;;;;5140639;27;20224;-66
2022/10/20 06:46:25;;;;;;;3.40;2.10;;;;;;;;;;5140597;27;20262;-65
2022/10/20 06:48:53;;;;;;;2.75;1.90;;;;;;;;;;5140261;27;20226;-65
2022/10/20 06:51:22;;;;;;;2.88;1.95;;;;;;;;;;5140516;27;20316;-66
2022/10/20 06:53:50;;;;;;;2.97;2.05;;;;;;;;;;5140272;27;20620;-66
2022/10/20 06:56:19;;;;;;;3.38;1.98;;;;;;;;;;5141689;27;20234;-65
2022/10/20 06:58:47;;;;;;;4.22;2.08;;;;;;;;;;5140508;27;20301;-66
2022/10/20 07:01:16;;;;;;;5.35;2.40;;;;;;;;;;5140510;27;20194;-65
2022/10/20 07:03:44;;;;;;;4.05;2.15;;;;;;;;;;5140383;27;20581;-65
2022/10/20 07:06:14;;;;;;;3.60;2.30;;;;;;;;;;5140121;27;20214;-65
2022/10/20 07:08:43;;;;;;;3.42;2.03;;;;;;;;;;5140758;27;20206;-65
2022/10/20 07:11:12;;;;;;;4.65;2.40;;;;;;;;;;5139320;27;20221;-66
2022/10/20 07:13:39;;;;;;;4.35;2.35;;;;;;;;;;5139864;27;20198;-65
2022/10/20 07:16:08;;;;;;;3.30;2.30;;;;;;;;;;5140079;27;20202;-65
2022/10/20 07:18:36;;;;;;;3.72;2.20;;;;;;;;;;5120040;28;20303;-65
2022/10/20 07:21:05;;;;;;;3.05;2.28;;;;;;;;;;5119528;28;20199;-66
2022/10/20 07:23:32;;;;;;;3.47;2.25;;;;;;;;;;5120069;28;20229;-69
2022/10/20 07:26:05;;;;;;;3.63;2.35;;;;;;;;;;5119515;28;20234;-67
2022/10/20 07:28:33;;;;;;;2.53;2.28;;;;;;;;;;5134664;27;20298;-67
2022/10/20 07:31:03;;;;;;;3.08;2.05;;;;;;;;;;5139810;27;20275;-66
2022/10/20 07:33:31;;;;;;;3.10;2.20;;;;;;;;;;5139923;27;20237;-66
2022/10/20 07:35:58;;;;;;;3.28;2.80;;;;;;;;;;5139396;27;20202;-67
2022/10/20 07:38:26;;;;;;;3.42;2.65;;;;;;;;;;5138200;27;20222;-66
2022/10/20 07:40:53;;;;;;;3.17;2.45;;;;;;;;;;5139270;27;20206;-66
2022/10/20 07:43:22;;;;;;;3.13;2.20;;;;;;;;;;5139296;27;20249;-66
2022/10/20 07:45:49;;;;;;;3.75;2.40;;;;;;;;;;5139048;27;20221;-66
2022/10/20 07:48:17;;;;;;;3.35;2.30;;;;;;;;;;5138962;27;20294;-69
2022/10/20 07:50:44;;;;;;;3.13;2.38;;;;;;;;;;5138065;27;20696;-66
2022/10/20 07:53:12;;;;;;;4.13;2.50;;;;;;;;;;5138868;27;20293;-66
2022/10/20 07:55:39;;;;;;;3.53;2.35;;;;;;;;;;5138781;27;20197;-66
2022/10/20 07:58:07;;;;;;;2.75;2.15;;;;;;;;;;5138918;27;20253;-66
2022/10/20 08:00:36;;;;;;;4.00;2.75;;;;;;;;;;5138588;27;20199;-66
2022/10/20 08:03:03;;;;;;;2.40;2.17;;;;;;;;;;5139268;27;20230;-65
2022/10/20 08:05:30;;;;;;;3.85;2.53;;;;;;;;;;5137090;27;20194;-65
2022/10/20 08:07:59;;;;;;;2.90;2.13;;;;;;;;;;5132887;27;20302;-65
2022/10/20 08:10:27;;;;;;;3.30;2.38;;;;;;;;;;5138761;27;20234;-65
2022/10/20 08:12:54;;;;;;;2.28;2.08;;;;;;;;;;5138865;27;20292;-65
2022/10/20 08:15:22;;;;;;;2.67;2.28;;;;;;;;;;5138592;27;20241;-65
2022/10/20 08:17:51;;;;;;;2.92;2.17;;;;;;;;;;5138442;27;20198;-66
2022/10/20 08:20:18;;;;;;;3.08;2.40;;;;;;;;;;5138994;27;20713;-67
2022/10/20 08:22:46;;;;;;;2.53;2.05;;;;;;;;;;5138469;27;20742;-67
2022/10/20 08:25:15;;;;;;;3.35;2.40;;;;;;;;;;5138620;27;20230;-68
2022/10/20 08:27:42;;;;;;;3.63;2.22;;;;;;;;;;5138958;27;20298;-67
2022/10/20 08:30:10;;;;;;;3.63;2.35;;;;;;;;;;5138042;27;20222;-66
2022/10/20 08:32:38;;;;;;;3.33;2.50;;;;;;;;;;5137464;27;20299;-66
2022/10/20 08:35:08;;;;;;;2.55;2.03;;;;;;;;;;5139082;27;20674;-67
2022/10/20 08:37:35;;;;;;;3.53;2.15;;;;;;;;;;5138610;27;20202;-67
2022/10/20 08:40:03;;;;;;;3.67;2.00;;;;;;;;;;5138201;27;20202;-67
2022/10/20 08:42:30;;;;;;;2.55;2.17;;;;;;;;;;5138120;27;20460;-67
2022/10/20 08:45:00;;;;;;;3.17;2.65;;;;;;;;;;5138111;27;20298;-66
2022/10/20 08:47:28;;;;;;;3.08;2.22;;;;;;;;;;5138277;27;20301;-67
2022/10/20 08:49:56;;;;;;;3.50;2.28;;;;;;;;;;5137943;27;20202;-66
2022/10/20 08:52:26;;;;;;;3.20;2.10;;;;;;;;;;5138352;27;20657;-67
2022/10/20 08:54:54;;;;;;;2.58;2.10;;;;;;;;;;5138261;27;20267;-67
2022/10/20 08:57:24;;;;;;;2.80;2.10;;;;;;;;;;5137731;27;20202;-67
2022/10/20 08:59:52;;;;;;;3.40;2.35;;;;;;;;;;5136695;27;20221;-66
2022/10/20 09:02:20;;;;;;;3.78;2.28;;;;;;;;;;5136965;27;20204;-66
2022/10/20 09:04:50;;;;;;;2.72;2.00;;;;;;;;;;5136990;27;20202;-67
2022/10/20 09:07:21;;;;;;;2.17;1.98;;;;;;;;;;5137327;27;20625;-66
2022/10/20 09:09:50;;;;;;;2.97;2.10;;;;;;;;;;5136393;27;20286;-67
2022/10/20 09:12:18;;;;;;;2.80;2.20;;;;;;;;;;5136613;27;20261;-66
2022/10/20 09:14:46;;;;;;;2.42;1.95;;;;;;;;;;5136989;27;20206;-67
2022/10/20 09:17:15;;;;;;;2.78;1.95;;;;;;;;;;5136467;27;20210;-66
2022/10/20 09:19:44;;;;;;;2.72;2.13;;;;;;;;;;5136709;27;20452;-66
2022/10/20 09:22:12;;;;;;;2.25;2.05;;;;;;;;;;5136139;27;20284;-66
2022/10/20 09:24:43;;;;;;;2.08;1.88;;;;;;;;;;5136870;27;20267;-66
2022/10/20 09:27:21;;;;;;;2.65;2.00;;;;;;;;;;5135253;27;20242;-66
2022/10/20 09:29:49;;;;;;;2.28;1.70;;;;;;;;;;5136462;27;20209;-66
2022/10/20 09:32:20;;;;;;;2.40;1.98;;;;;;;;;;5136529;27;20573;-66
2022/10/20 09:34:47;;;;;;;3.05;2.08;;;;;;;;;;5136591;27;20224;-66
2022/10/20 09:37:17;;;;;;;2.40;1.90;;;;;;;;;;5136131;27;20308;-67
2022/10/20 09:39:50;;;;;;;2.30;2.10;;;;;;;;;;5136567;27;20302;-67
2022/10/20 09:42:21;;;;;;;2.28;1.85;;;;;;;;;;5137284;27;20205;-66
2022/10/20 09:44:50;;;;;;;2.03;1.83;;;;;;;;;;5136761;27;20225;-66
2022/10/20 09:47:17;;;;;;;2.40;1.90;;;;;;;;;;5137397;27;20267;-66
2022/10/20 09:49:46;;;;;;;2.20;1.80;;;;;;;;;;5136400;27;20260;-66
2022/10/20 09:52:18;;;;;;;1.98;1.67;;;;;;;;;;5136640;27;20322;-66
2022/10/20 09:54:47;;;;;;;2.22;2.03;;;;;;;;;;5135206;27;20206;-66
2022/10/20 09:57:18;;;;;;;2.55;2.00;;;;;;;;;;5135209;27;20240;-66
2022/10/20 09:59:47;;;;;;;2.55;1.75;;;;;;;;;;5135602;27;20198;-67
2022/10/20 10:02:29;;;;;;;1.85;1.75;;;;;;;;;;5134723;27;20306;-66
2022/10/20 10:05:13;;;;;;;1.95;1.70;;;;;;;;;;5136110;27;20202;-66
2022/10/20 10:07:40;;;;;;;1.67;1.58;;;;;;;;;;5135208;27;20202;-67
2022/10/20 10:10:09;;;;;;;1.90;1.50;;;;;;;;;;5133759;27;20283;-66
2022/10/20 10:12:37;;;;;;;1.80;1.63;;;;;;;;;;5135775;27;20603;-66
2022/10/20 10:15:09;;;;;;;2.17;1.67;;;;;;;;;;5135003;27;20202;-67
2022/10/20 10:17:37;;;;;;;1.92;1.67;;;;;;;;;;5136054;27;20202;-66
2022/10/20 10:20:06;;;;;;;1.63;1.52;;;;;;;;;;5134884;27;20281;-66
2022/10/20 10:22:34;;;;;;;2.08;1.60;;;;;;;;;;5135714;27;20251;-66
2022/10/20 10:25:01;;;;;;;1.67;1.58;;;;;;;;;;5135674;27;20199;-67
2022/10/20 10:27:30;;;;;;;2.83;1.90;;;;;;;;;;5135080;27;20264;-67
2022/10/20 10:30:17;;;;;;;1.95;1.80;;;;;;;;;;5135334;27;20266;-66
2022/10/20 10:32:46;;;;;;;1.98;1.67;;;;;;;;;;5134805;28;20316;-66
2022/10/20 10:35:20;;;;;;;2.17;1.63;;;;;;;;;;5134563;27;20261;-66
2022/10/20 10:37:48;;;;;;;1.60;1.40;;;;;;;;;;5134531;27;20237;-66
2022/10/20 10:40:16;;;;;;;2.40;1.63;;;;;;;;;;5135820;28;20263;-66
2022/10/20 10:42:50;;;;;;;2.03;1.55;;;;;;;;;;5135137;27;20234;-66
2022/10/20 10:45:19;;;;;;;2.35;1.88;;;;;;;;;;5135686;28;20233;-67
2022/10/20 10:48:01;;;;;;;1.60;1.50;;;;;;;;;;5134498;28;20373;-66
2022/10/20 10:50:32;;;;;;;2.90;1.63;;;;;;;;;;5135194;28;20318;-67
2022/10/20 10:53:06;;;;;;;1.60;1.50;;;;;;;;;;5135218;28;20209;-66
2022/10/20 10:55:35;;;;;;;2.20;1.70;;;;;;;;;;5134463;28;20251;-67
2022/10/20 10:58:06;;;;;;;2.00;1.80;;;;;;;;;;5134907;28;20241;-67
2022/10/20 11:00:39;;;;;;;2.15;1.58;;;;;;;;;;5135421;28;21192;-67
2022/10/20 11:03:19;;;;;;;1.65;1.50;;;;;;;;;;5135189;28;20206;-66
2022/10/20 11:05:52;;;;;;;2.38;2.03;;;;;;;;;;5134636;28;20198;-66
2022/10/20 11:08:25;;;;;;;2.08;1.58;;;;;;;;;;5134209;28;20759;-67
2022/10/20 11:10:57;;;;;;;2.47;1.98;;;;;;;;;;5134233;28;20241;-66
2022/10/20 11:13:30;;;;;;;1.90;1.60;;;;;;;;;;5134598;28;20257;-66
2022/10/20 11:16:02;;;;;;;1.85;1.70;;;;;;;;;;5135523;28;20275;-67
2022/10/20 11:18:39;;;;;;;1.88;1.60;;;;;;;;;;5134908;28;20267;-66
2022/10/20 11:21:13;;;;;;;2.58;1.70;;;;;;;;;;5135455;28;20225;-66
2022/10/20 11:23:53;;;;;;;1.90;1.60;;;;;;;;;;5134565;28;20227;-67
2022/10/20 11:26:24;;;;;;;2.13;1.50;;;;;;;;;;5137002;27;20578;-67
2022/10/20 11:28:52;;;;;;;1.70;1.60;;;;;;;;;;5138277;27;20242;-68
2022/10/20 11:31:23;;;;;;;1.67;1.50;;;;;;;;;;5139016;27;20321;-67
2022/10/20 11:33:56;;;;;;;1.85;1.70;;;;;;;;;;5138943;27;20286;-66
2022/10/20 11:36:27;;;;;;;1.85;1.67;;;;;;;;;;5138426;27;20243;-67
2022/10/20 11:38:55;;;;;;;2.05;1.70;;;;;;;;;;5138590;27;20206;-66
2022/10/20 11:41:25;;;;;;;1.92;1.73;;;;;;;;;;5137909;27;20559;-67
2022/10/20 11:43:57;;;;;;;1.80;1.65;;;;;;;;;;5138338;27;20285;-67
2022/10/20 11:46:31;;;;;;;1.60;1.50;;;;;;;;;;5137840;27;20229;-66
2022/10/20 11:49:00;;;;;;;2.25;1.90;;;;;;;;;;5138522;27;20290;-66
2022/10/20 11:51:56;;;;;;;2.08;1.60;;;;;;;;;;5138199;27;20319;-66
2022/10/20 11:54:30;;;;;;;2.20;1.70;;;;;;;;;;5138973;27;20198;-66
2022/10/20 11:57:03;;;;;;;1.70;1.60;;;;;;;;;;5138774;27;20237;-66
2022/10/20 11:59:43;;;;;;;1.80;1.70;;;;;;;;;;5138607;27;20638;-66
2022/10/20 12:02:22;;;;;;;1.50;1.40;;;;;;;;;;5138413;27;20772;-65
2022/10/20 12:05:02;;;;;;;1.55;1.45;;;;;;;;;;5137885;27;20234;-66
2022/10/20 12:07:49;;;;;;;1.88;1.60;;;;;;;;;;5137177;27;20862;-66
2022/10/20 12:10:28;;;;;;;1.60;1.50;;;;;;;;;;5138159;27;20809;-66
2022/10/20 12:13:02;;;;;;;1.95;1.50;;;;;;;;;;5137714;27;20834;-66
2022/10/20 12:15:29;;;;;;;1.95;1.75;;;;;;;;;;5138182;27;20303;-66
2022/10/20 12:18:00;;;;;;;1.70;1.60;;;;;;;;;;5137464;27;20206;-66
2022/10/20 12:20:51;;;;;;;1.63;1.52;;;;;;;;;;5137086;27;20313;-66
2022/10/20 12:23:37;;;;;;;2.28;1.88;;;;;;;;;;5136817;27;20229;-66
2022/10/20 12:26:05;;;;;;;1.55;1.45;;;;;;;;;;5137087;27;20226;-66
2022/10/20 12:28:42;;;;;;;3.13;1.70;;;;;;;;;;5137577;27;20290;-66
2022/10/20 12:31:10;;;;;;;1.77;1.67;;;;;;;;;;5137885;27;20266;-66
2022/10/20 12:33:39;;;;;;;1.52;1.42;;;;;;;;;;5137201;27;20289;-65
2022/10/20 12:36:25;;;;;;;1.73;1.50;;;;;;;;;;5136027;27;20198;-65
2022/10/20 12:38:54;;;;;;;1.90;1.80;;;;;;;;;;5137063;27;20673;-66
2022/10/20 12:41:27;;;;;;;1.70;1.60;;;;;;;;;;5137545;27;20274;-67
2022/10/20 12:43:55;;;;;;;1.67;1.42;;;;;;;;;;5137324;27;20338;-67
2022/10/20 12:46:24;;;;;;;1.80;1.70;;;;;;;;;;5137137;27;20238;-66
2022/10/20 12:48:56;;;;;;;1.88;1.70;;;;;;;;;;5136245;27;20206;-67
2022/10/20 12:51:34;;;;;;;1.95;1.63;;;;;;;;;;5136969;27;20202;-66
2022/10/20 12:54:03;;;;;;;1.50;1.40;;;;;;;;;;5136260;27;20194;-66
2022/10/20 12:56:34;;;;;;;1.60;1.50;;;;;;;;;;5137357;27;20202;-66
2022/10/20 12:59:09;;;;;;;1.70;1.60;;;;;;;;;;5137067;27;20202;-66
2022/10/20 13:01:51;;;;;;;1.58;1.48;;;;;;;;;;5136528;27;20218;-66
2022/10/20 13:04:34;;;;;;;1.58;1.45;;;;;;;;;;5115417;28;20293;-67
2022/10/20 13:07:03;;;;;;;1.70;1.60;;;;;;;;;;5115007;28;20202;-67
2022/10/20 13:09:30;;;;;;;1.73;1.63;;;;;;;;;;5115634;28;20828;-66
2022/10/20 13:12:05;;;;;;;2.00;1.70;;;;;;;;;;5115733;28;20322;-66
2022/10/20 13:14:42;;;;;;;1.88;1.67;;;;;;;;;;5115805;28;20486;-67
2022/10/20 13:17:20;;;;;;;1.42;1.30;;;;;;;;;;5116150;28;20202;-66
2022/10/20 13:19:49;;;;;;;1.60;1.50;;;;;;;;;;5114938;28;20231;-66
2022/10/20 13:22:41;;;;;;;1.77;1.60;;;;;;;;;;5115976;28;20209;-67
2022/10/20 13:25:17;;;;;;;1.98;1.77;;;;;;;;;;5091435;28;20310;-67
2022/10/20 13:27:45;;;;;;;1.50;1.40;;;;;;;;;;5104494;28;20228;-66
2022/10/20 13:30:19;;;;;;;1.77;1.65;;;;;;;;;;5110919;28;20206;-66
2022/10/20 13:32:51;;;;;;;1.77;1.60;;;;;;;;;;5115564;28;20257;-66
2022/10/20 13:35:22;;;;;;;2.03;1.65;;;;;;;;;;5115604;28;20207;-66
2022/10/20 13:37:56;;;;;;;1.60;1.50;;;;;;;;;;5098018;28;20191;-67
2022/10/20 13:40:27;;;;;;;1.50;1.40;;;;;;;;;;5115457;28;20271;-66
2022/10/20 13:43:06;;;;;;;1.65;1.55;;;;;;;;;;5114862;28;20206;-66
2022/10/20 13:45:40;;;;;;;1.70;1.60;;;;;;;;;;5115005;28;20212;-66
2022/10/20 13:48:15;;;;;;;1.50;1.40;;;;;;;;;;5113785;28;20241;-66
2022/10/20 13:50:43;;;;;;;1.55;1.45;;;;;;;;;;5114803;28;20267;-66
2022/10/20 13:53:14;;;;;;;1.88;1.70;;;;;;;;;;5115518;28;20330;-67
2022/10/20 13:55:58;;;;;;;1.80;1.67;;;;;;;;;;5114653;28;20206;-66
2022/10/20 13:58:26;;;;;;;1.55;1.30;;;;;;;;;;5113840;28;20233;-67
2022/10/20 14:00:58;;;;;;;1.70;1.60;;;;;;;;;;5113913;28;20298;-67
2022/10/20 14:03:26;;;;;;;1.80;1.70;;;;;;;;;;5114046;28;20257;-66
2022/10/20 14:05:53;;;;;;;1.75;1.63;;;;;;;;;;5113912;28;20250;-66
2022/10/20 14:08:21;;;;;;;1.60;1.50;;;;;;;;;;5113888;28;20195;-66
2022/10/20 14:10:51;;;;;;;1.60;1.50;;;;;;;;;;5114291;28;20246;-66
2022/10/20 14:13:22;;;;;;;1.77;1.67;;;;;;;;;;5114115;28;20326;-66
2022/10/20 14:15:50;;;;;;;1.52;1.42;;;;;;;;;;5115834;28;20211;-66
2022/10/20 14:18:25;;;;;;;1.50;1.40;;;;;;;;;;5113609;28;20234;-67
2022/10/20 14:20:58;;;;;;;1.70;1.60;;;;;;;;;;5113893;28;20194;-66
2022/10/20 14:23:27;;;;;;;1.90;1.60;;;;;;;;;;5114538;28;20198;-66
2022/10/20 14:25:55;;;;;;;1.50;1.40;;;;;;;;;;5114399;28;20293;-67
2022/10/20 14:28:25;;;;;;;1.67;1.58;;;;;;;;;;5129607;28;20261;-66
2022/10/20 14:30:52;;;;;;;1.60;1.50;;;;;;;;;;5134616;28;20284;-66
2022/10/20 14:33:20;;;;;;;1.65;1.50;;;;;;;;;;5133761;28;20287;-66
2022/10/20 14:35:50;;;;;;;1.67;1.58;;;;;;;;;;5134329;28;20642;-67
2022/10/20 14:38:19;;;;;;;1.45;1.35;;;;;;;;;;5135040;28;20252;-66
2022/10/20 14:40:50;;;;;;;1.70;1.60;;;;;;;;;;5134550;28;20666;-66
2022/10/20 14:43:19;;;;;;;1.65;1.55;;;;;;;;;;5134732;28;20247;-66
2022/10/20 14:45:55;;;;;;;1.83;1.67;;;;;;;;;;5134609;28;20309;-66
2022/10/20 14:48:24;;;;;;;1.67;1.58;;;;;;;;;;5134620;28;20301;-66
2022/10/20 14:50:52;;;;;;;1.70;1.60;;;;;;;;;;5132966;28;20697;-66
2022/10/20 14:53:28;;;;;;;1.73;1.63;;;;;;;;;;5116306;28;20251;-66
2022/10/20 14:55:56;;;;;;;1.50;1.40;;;;;;;;;;5093818;28;20269;-66
2022/10/20 14:58:34;;;;;;;1.80;1.70;;;;;;;;;;5093443;28;20290;-66
2022/10/20 15:01:16;;;;;;;1.70;1.60;;;;;;;;;;5095723;28;20257;-67